createdAt,value
2022-08-16T00:04:59.790Z,81.70
2022-08-16T00:07:29.510Z,81.90
2022-08-16T00:09:59.387Z,82.00
2022-08-16T00:12:29.364Z,82.00
2022-08-16T00:15:13.330Z,82.10
2022-08-16T00:17:56.979Z,82.10
2022-08-16T00:20:27.977Z,82.20
2022-08-16T00:22:58.833Z,82.40
2022-08-16T00:25:34.370Z,82.40
2022-08-16T00:30:45.732Z,82.20
2022-08-16T00:33:15.516Z,82.40
2022-08-16T00:35:46.075Z,82.30
2022-08-16T00:38:40.985Z,82.20
2022-08-16T00:41:07.274Z,82.20
2022-08-16T00:43:40.689Z,82.20
2022-08-16T00:46:22.378Z,82.20
2022-08-16T00:49:02.683Z,82.20
2022-08-16T00:51:32.498Z,82.40
2022-08-16T00:54:02.869Z,82.40
2022-08-16T00:56:58.538Z,82.60
2022-08-16T00:59:27.918Z,82.70
2022-08-16T01:01:57.065Z,82.80
2022-08-16T01:04:30.922Z,82.90
2022-08-16T01:07:06.683Z,83.10
2022-08-16T01:09:42.903Z,83.10
2022-08-16T01:12:26.268Z,83.40
2022-08-16T01:15:00.947Z,83.60
2022-08-16T01:17:36.851Z,83.70
2022-08-16T01:20:24.519Z,83.80
2022-08-16T01:23:09.053Z,84.10
2022-08-16T01:25:44.086Z,84.30
2022-08-16T01:28:19.639Z,84.50
2022-08-16T01:30:54.261Z,85.10
2022-08-16T01:33:24.626Z,85.40
2022-08-16T01:36:12.173Z,85.50
2022-08-16T01:38:49.075Z,85.50
2022-08-16T01:41:29.701Z,85.70
2022-08-16T01:46:39.131Z,86.30
2022-08-16T01:49:43.468Z,86.40
2022-08-16T01:52:29.407Z,86.50
2022-08-16T01:55:26.031Z,86.60
2022-08-16T01:58:06.195Z,86.70
2022-08-16T02:00:40.314Z,86.80
2022-08-16T02:03:12.556Z,86.70
2022-08-16T02:05:51.717Z,86.80
2022-08-16T02:08:33.385Z,87.10
2022-08-16T02:11:06.933Z,87.50
2022-08-16T02:13:41.637Z,87.50
2022-08-16T02:16:18.749Z,87.80
2022-08-16T02:18:48.781Z,88.10
2022-08-16T02:21:31.337Z,88.40
2022-08-16T02:26:29.617Z,88.80
2022-08-16T02:29:04.525Z,88.90
2022-08-16T02:32:03.068Z,89.10
2022-08-16T02:34:32.905Z,89.10
2022-08-16T02:37:10.977Z,89.10
2022-08-16T02:39:41.428Z,89.20
2022-08-16T02:42:10.289Z,89.30
2022-08-16T02:44:42.489Z,89.50
2022-08-16T02:50:52.874Z,89.70
2022-08-16T02:52:43.909Z,89.60
2022-08-16T02:55:15.658Z,89.70
2022-08-16T02:57:54.093Z,89.90
2022-08-16T03:00:34.553Z,90.00
2022-08-16T03:03:10.615Z,90.00
2022-08-16T03:05:39.634Z,90.10
2022-08-16T03:08:50.381Z,90.20
2022-08-16T03:11:00.353Z,90.30
2022-08-16T03:16:00.077Z,90.40
2022-08-16T03:18:34.464Z,90.50
2022-08-16T03:21:10.085Z,90.50
2022-08-16T03:23:38.805Z,90.60
2022-08-16T03:26:09.626Z,90.70
2022-08-16T03:28:39.435Z,90.70
2022-08-16T03:31:10.404Z,90.70
2022-08-16T03:33:43.842Z,90.70
2022-08-16T03:36:29.889Z,90.80
2022-08-16T03:39:03.583Z,90.80
2022-08-16T03:44:44.681Z,90.90
2022-08-16T03:47:13.468Z,91.00
2022-08-16T03:49:51.648Z,91.00
2022-08-16T03:52:23.575Z,91.00
2022-08-16T03:54:58.182Z,91.10
2022-08-16T03:57:31.632Z,91.10
2022-08-16T04:00:20.703Z,91.30
2022-08-16T04:03:08.804Z,91.30
2022-08-16T04:05:44.612Z,91.40
2022-08-16T04:08:23.813Z,91.50
2022-08-16T04:10:57.902Z,91.60
2022-08-16T04:19:02.025Z,91.70
2022-08-16T04:21:32.299Z,91.70
2022-08-16T04:24:02.026Z,91.70
2022-08-16T04:26:32.669Z,91.70
2022-08-16T04:29:16.266Z,91.70
2022-08-16T04:31:56.056Z,91.70
2022-08-16T04:34:33.474Z,91.80
2022-08-16T04:37:03.325Z,91.80
2022-08-16T04:39:47.065Z,91.80
2022-08-16T04:44:57.612Z,91.80
2022-08-16T04:47:35.502Z,91.80
2022-08-16T04:50:14.502Z,91.70
2022-08-16T04:52:59.927Z,91.60
2022-08-16T04:55:38.255Z,91.60
2022-08-16T04:58:38.490Z,91.50
2022-08-16T05:01:00.855Z,91.50
2022-08-16T05:03:31.802Z,91.50
2022-08-16T05:06:06.993Z,91.50
2022-08-16T05:08:36.005Z,91.50
2022-08-16T05:11:15.812Z,91.50
2022-08-16T05:13:49.312Z,91.60
2022-08-16T05:16:27.955Z,91.60
2022-08-16T05:22:07.291Z,91.40
2022-08-16T05:24:47.447Z,91.40
2022-08-16T05:27:15.992Z,91.40
2022-08-16T05:30:00.966Z,91.40
2022-08-16T05:32:36.596Z,91.40
2022-08-16T05:35:16.558Z,91.30
2022-08-16T05:38:32.305Z,91.40
2022-08-16T05:41:01.965Z,91.30
2022-08-16T05:46:29.700Z,91.30
2022-08-16T05:51:42.500Z,91.10
2022-08-16T05:54:24.958Z,91.20
2022-08-16T05:56:57.863Z,91.20
2022-08-16T06:01:59.716Z,91.20
2022-08-16T06:04:35.639Z,91.20
2022-08-16T06:07:24.356Z,91.20
2022-08-16T06:10:05.180Z,91.00
2022-08-16T06:12:36.895Z,90.90
2022-08-16T06:15:14.889Z,90.70
2022-08-16T06:17:46.349Z,90.60
2022-08-16T06:20:34.826Z,90.50
2022-08-16T06:23:16.927Z,90.60
2022-08-16T06:26:03.775Z,90.70
2022-08-16T06:28:39.111Z,90.70
2022-08-16T06:31:15.368Z,90.70
2022-08-16T06:33:47.927Z,90.70
2022-08-16T06:36:21.771Z,90.70
2022-08-16T06:39:00.304Z,90.70
2022-08-16T06:41:43.962Z,90.60
2022-08-16T06:44:24.488Z,90.50
2022-08-16T06:49:31.983Z,90.30
2022-08-16T06:52:02.933Z,90.20
2022-08-16T06:54:36.365Z,90.20
2022-08-16T06:57:16.548Z,90.00
2022-08-16T06:59:52.790Z,89.80
2022-08-16T07:02:32.895Z,89.50
2022-08-16T07:07:50.686Z,89.30
2022-08-16T07:10:25.859Z,88.80
2022-08-16T07:13:04.431Z,88.50
2022-08-16T07:15:50.488Z,88.50
2022-08-16T07:18:24.859Z,88.40
2022-08-16T07:20:57.794Z,88.40
2022-08-16T07:23:37.000Z,87.10
2022-08-16T07:26:24.878Z,85.80
2022-08-16T07:28:56.898Z,85.10
2022-08-16T07:31:25.415Z,83.80
2022-08-16T07:34:10.023Z,82.50
2022-08-16T07:36:39.009Z,80.70
2022-08-16T07:39:08.747Z,78.40
2022-08-16T07:41:40.157Z,76.50
2022-08-16T07:44:15.425Z,75.30
2022-08-16T07:46:45.069Z,74.40
2022-08-16T07:49:22.674Z,73.00
2022-08-16T07:51:55.997Z,72.20
2022-08-16T07:54:37.955Z,71.60
2022-08-16T07:57:12.150Z,71.00
2022-08-16T07:59:45.998Z,70.50
2022-08-16T08:02:20.618Z,70.00
2022-08-16T08:04:55.469Z,69.50
2022-08-16T08:07:28.106Z,68.80
2022-08-16T08:09:58.440Z,68.50
2022-08-16T08:12:32.495Z,68.40
2022-08-16T08:15:11.341Z,67.90
2022-08-16T08:17:44.086Z,66.70
2022-08-16T08:20:27.976Z,66.60
2022-08-16T08:23:02.737Z,65.20
2022-08-16T08:25:54.102Z,64.90
2022-08-16T08:28:24.130Z,64.10
2022-08-16T08:31:02.436Z,63.80
2022-08-16T08:33:34.941Z,62.70
2022-08-16T08:36:10.196Z,61.00
2022-08-16T08:38:44.291Z,61.30
2022-08-16T08:41:18.284Z,61.10
2022-08-16T08:43:50.377Z,61.00
2022-08-16T08:46:23.621Z,60.70
2022-08-16T08:49:00.125Z,59.90
2022-08-16T08:51:36.810Z,59.40
2022-08-16T08:54:09.753Z,59.00
2022-08-16T08:56:45.271Z,58.10
2022-08-16T08:59:33.694Z,57.50
2022-08-16T09:02:08.887Z,56.70
2022-08-16T09:04:47.875Z,58.30
2022-08-16T09:07:22.096Z,59.00
2022-08-16T09:10:06.369Z,59.80
2022-08-16T09:12:38.100Z,60.40
2022-08-16T09:15:13.757Z,60.20
2022-08-16T09:17:52.151Z,59.00
2022-08-16T09:20:30.329Z,57.70
2022-08-16T09:23:02.340Z,57.20
2022-08-16T09:25:36.044Z,56.80
2022-08-16T09:28:09.371Z,56.90
2022-08-16T09:30:45.222Z,56.30
2022-08-16T09:33:19.903Z,55.80
2022-08-16T09:35:53.519Z,56.00
2022-08-16T09:38:32.049Z,55.60
2022-08-16T09:41:02.665Z,54.60
2022-08-16T09:43:59.435Z,54.30
2022-08-16T09:46:44.923Z,52.70
2022-08-16T09:49:13.940Z,52.80
2022-08-16T09:51:42.409Z,52.30
2022-08-16T09:54:17.174Z,52.00
2022-08-16T09:56:52.835Z,51.30
2022-08-16T09:59:25.673Z,51.00
2022-08-16T10:01:59.584Z,51.50
2022-08-16T10:04:36.634Z,51.30
2022-08-16T10:07:16.020Z,50.90
2022-08-16T10:09:54.682Z,50.80
2022-08-16T10:12:44.405Z,50.00
2022-08-16T10:15:17.876Z,49.50
2022-08-16T10:18:01.361Z,49.10
2022-08-16T10:20:35.994Z,48.90
2022-08-16T10:23:09.912Z,48.30
2022-08-16T10:27:16.381Z,48.00
2022-08-16T10:28:40.162Z,47.70
2022-08-16T10:31:16.907Z,47.50
2022-08-16T10:34:02.274Z,47.00
2022-08-16T10:36:39.237Z,45.90
2022-08-16T10:39:08.779Z,46.20
2022-08-16T10:41:37.446Z,46.00
2022-08-16T10:44:09.441Z,45.60
2022-08-16T10:46:41.845Z,46.00
2022-08-16T10:49:12.381Z,45.20
2022-08-16T10:52:01.735Z,45.10
2022-08-16T10:54:31.316Z,46.00
2022-08-16T10:57:00.943Z,46.10
2022-08-16T10:59:46.027Z,45.80
2022-08-16T11:02:57.834Z,45.50
2022-08-16T11:05:16.520Z,45.00
2022-08-16T11:07:52.483Z,44.50
2022-08-16T11:13:57.575Z,44.00
2022-08-16T11:19:06.483Z,43.80
2022-08-16T11:24:41.515Z,43.30
2022-08-16T11:27:24.165Z,43.10
2022-08-16T11:30:01.849Z,42.80
2022-08-16T11:32:33.635Z,42.50
2022-08-16T11:35:13.883Z,42.40
2022-08-16T11:40:44.246Z,42.40
2022-08-16T11:43:16.918Z,42.70
2022-08-16T11:45:53.959Z,42.70
2022-08-16T11:48:24.559Z,42.30
2022-08-16T11:50:53.526Z,42.10
2022-08-16T11:53:22.759Z,41.50
2022-08-16T11:55:55.256Z,41.50
2022-08-16T11:58:26.090Z,41.20
2022-08-16T12:00:59.217Z,41.00
2022-08-16T12:03:36.757Z,40.80
2022-08-16T12:06:25.123Z,40.80
2022-08-16T12:09:02.260Z,40.70
2022-08-16T12:11:33.964Z,40.80
2022-08-16T12:14:04.724Z,40.50
2022-08-16T12:16:35.669Z,40.10
2022-08-16T12:19:06.509Z,39.70
2022-08-16T12:21:58.487Z,39.30
2022-08-16T12:24:29.285Z,39.00
2022-08-16T12:26:59.986Z,38.50
2022-08-16T12:29:29.807Z,38.50
2022-08-16T12:32:26.561Z,38.70
2022-08-16T12:34:50.649Z,38.40
2022-08-16T12:37:24.386Z,38.70
2022-08-16T12:39:55.892Z,39.10
2022-08-16T12:42:35.188Z,38.80
2022-08-16T12:45:08.377Z,38.70
2022-08-16T12:48:09.904Z,38.50
2022-08-16T12:50:43.229Z,38.30
2022-08-16T12:53:20.530Z,38.20
2022-08-16T12:55:50.252Z,38.10
2022-08-16T12:58:49.468Z,38.00
2022-08-16T13:01:11.300Z,37.50
2022-08-16T13:04:12.444Z,36.90
2022-08-16T13:06:52.320Z,36.60
2022-08-16T13:09:24.178Z,36.60
2022-08-16T13:12:03.669Z,36.40
2022-08-16T13:14:41.354Z,36.20
2022-08-16T13:17:18.686Z,36.20
2022-08-16T13:20:08.272Z,36.20
2022-08-16T13:25:21.157Z,35.70
2022-08-16T13:28:02.308Z,35.40
2022-08-16T13:30:41.890Z,35.20
2022-08-16T13:33:16.933Z,35.30
2022-08-16T13:35:55.703Z,35.30
2022-08-16T13:38:37.294Z,35.80
2022-08-16T13:41:08.313Z,36.90
2022-08-16T13:43:39.254Z,37.30
2022-08-16T13:46:09.845Z,36.80
2022-08-16T13:48:44.764Z,36.10
2022-08-16T13:51:17.513Z,35.60
2022-08-16T13:53:54.232Z,35.10
2022-08-16T13:56:36.860Z,34.90
2022-08-16T13:59:19.545Z,34.90
2022-08-16T14:01:55.461Z,34.90
2022-08-16T14:04:27.635Z,34.80
2022-08-16T14:06:58.708Z,34.60
2022-08-16T14:09:29.102Z,34.30
2022-08-16T14:11:58.609Z,34.30
2022-08-16T14:14:30.352Z,34.20
2022-08-16T14:17:03.165Z,34.10
2022-08-16T14:19:31.959Z,34.00
2022-08-16T14:22:13.758Z,33.80
2022-08-16T14:24:45.363Z,33.80
2022-08-16T14:27:17.741Z,34.30
2022-08-16T14:29:49.296Z,33.70
2022-08-16T14:32:27.236Z,33.50
2022-08-16T14:35:07.277Z,33.80
2022-08-16T14:37:36.904Z,34.80
2022-08-16T14:40:06.832Z,34.10
2022-08-16T14:42:36.743Z,34.20
2022-08-16T14:45:07.579Z,34.30
2022-08-16T14:47:38.463Z,33.90
2022-08-16T14:50:10.002Z,33.60
2022-08-16T14:52:58.280Z,33.30
2022-08-16T14:55:29.965Z,33.30
2022-08-16T14:57:59.074Z,33.50
2022-08-16T15:00:36.360Z,33.40
2022-08-16T15:03:10.594Z,33.50
2022-08-16T15:05:41.686Z,33.50
2022-08-16T15:08:11.192Z,33.40
2022-08-16T15:10:42.906Z,33.20
2022-08-16T15:13:15.656Z,33.30
2022-08-16T15:15:45.355Z,33.00
2022-08-16T15:18:31.938Z,32.90
2022-08-16T15:21:02.094Z,32.90
2022-08-16T15:23:33.595Z,33.00
2022-08-16T15:26:04.515Z,32.80
2022-08-16T15:28:38.092Z,32.80
2022-08-16T15:31:10.360Z,32.80
2022-08-16T15:33:50.748Z,32.80
2022-08-16T15:36:23.632Z,32.80
2022-08-16T15:39:05.559Z,33.00
2022-08-16T15:42:03.425Z,32.90
2022-08-16T15:44:45.087Z,32.80
2022-08-16T15:47:25.783Z,32.50
2022-08-16T15:49:57.851Z,32.50
2022-08-16T15:52:32.670Z,32.60
2022-08-16T15:55:07.548Z,32.50
2022-08-16T15:57:52.643Z,32.50
2022-08-16T16:00:22.241Z,32.60
2022-08-16T16:03:04.214Z,32.30
2022-08-16T16:05:41.202Z,32.70
2022-08-16T16:08:10.999Z,33.40
2022-08-16T16:10:43.303Z,32.90
2022-08-16T16:13:13.244Z,32.50
2022-08-16T16:15:46.084Z,33.00
2022-08-16T16:18:15.985Z,32.30
2022-08-16T16:20:50.124Z,32.50
2022-08-16T16:23:24.631Z,32.90
2022-08-16T16:25:54.711Z,33.00
2022-08-16T16:29:08.576Z,33.00
2022-08-16T16:31:18.419Z,32.40
2022-08-16T16:33:55.663Z,32.30
2022-08-16T16:36:29.577Z,32.60
2022-08-16T16:38:58.406Z,32.40
2022-08-16T16:41:28.846Z,32.30
2022-08-16T16:44:00.905Z,32.30
2022-08-16T16:46:42.719Z,32.20
2022-08-16T16:49:14.498Z,32.10
2022-08-16T16:51:50.118Z,32.10
2022-08-16T16:54:28.062Z,32.30
2022-08-16T16:56:58.437Z,32.40
2022-08-16T16:59:27.972Z,32.50
2022-08-16T17:02:38.928Z,32.60
2022-08-16T17:04:47.913Z,32.80
2022-08-16T17:07:20.653Z,32.90
2022-08-16T17:09:53.317Z,32.90
2022-08-16T17:12:24.733Z,32.90
2022-08-16T17:15:12.024Z,32.80
2022-08-16T17:18:00.219Z,32.80
2022-08-16T17:20:31.009Z,33.30
2022-08-16T17:23:01.067Z,33.00
2022-08-16T17:25:36.861Z,33.50
2022-08-16T17:28:59.113Z,33.90
2022-08-16T17:30:58.481Z,34.50
2022-08-16T17:33:28.553Z,35.00
2022-08-16T17:36:08.531Z,35.40
2022-08-16T17:38:43.873Z,35.80
2022-08-16T17:41:15.650Z,36.10
2022-08-16T17:43:46.094Z,36.10
2022-08-16T17:46:50.446Z,36.30
2022-08-16T17:51:34.744Z,36.60
2022-08-16T17:54:04.809Z,36.90
2022-08-16T17:56:33.528Z,37.10
2022-08-16T18:01:30.710Z,37.70
2022-08-16T18:09:10.439Z,38.70
2022-08-16T18:14:15.885Z,39.30
2022-08-16T18:16:45.542Z,39.60
2022-08-16T18:19:13.898Z,39.80
2022-08-16T18:22:00.209Z,40.00
2022-08-16T18:24:31.196Z,40.20
2022-08-16T18:27:24.779Z,40.40
2022-08-16T18:29:52.129Z,40.50
2022-08-16T18:32:22.162Z,40.70
2022-08-16T18:34:54.269Z,41.00
2022-08-16T18:37:23.503Z,41.00
2022-08-16T18:39:53.419Z,41.30
2022-08-16T18:42:21.825Z,41.50
2022-08-16T18:44:50.154Z,41.50
2022-08-16T18:47:18.602Z,41.80
2022-08-16T18:49:47.021Z,42.00
2022-08-16T18:52:25.493Z,42.10
2022-08-16T18:55:01.969Z,42.30
2022-08-16T19:02:57.317Z,42.80
2022-08-16T19:05:24.640Z,42.90
2022-08-16T19:07:53.521Z,43.10
2022-08-16T19:10:23.540Z,43.20
2022-08-16T19:12:52.329Z,43.50
2022-08-16T19:15:25.963Z,43.60
2022-08-16T19:17:55.131Z,43.70
2022-08-16T19:20:26.776Z,43.90
2022-08-16T19:23:05.836Z,44.00
2022-08-16T19:25:47.245Z,44.20
2022-08-16T19:28:21.829Z,44.00
2022-08-16T19:31:14.625Z,44.40
2022-08-16T19:33:53.859Z,44.60
2022-08-16T19:36:31.639Z,44.80
2022-08-16T19:39:05.905Z,45.00
2022-08-16T19:41:38.123Z,45.10
2022-08-16T19:44:07.739Z,45.30
2022-08-16T19:46:37.761Z,45.50
2022-08-16T19:49:06.852Z,45.70
2022-08-16T19:51:35.264Z,45.90
2022-08-16T19:54:03.819Z,46.20
2022-08-16T19:56:32.226Z,46.40
2022-08-16T19:59:18.542Z,46.60
2022-08-16T20:01:52.541Z,46.80
2022-08-16T20:04:22.182Z,47.10
2022-08-16T20:09:21.786Z,47.60
2022-08-16T20:11:52.054Z,47.80
2022-08-16T20:14:25.185Z,47.90
2022-08-16T20:16:57.606Z,48.10
2022-08-16T20:19:27.643Z,48.20
2022-08-16T20:22:01.631Z,48.40
2022-08-16T20:24:35.186Z,48.50
2022-08-16T20:27:09.457Z,48.60
2022-08-16T20:29:44.594Z,48.60
2022-08-16T20:32:16.698Z,48.90
2022-08-16T20:34:47.817Z,49.00
2022-08-16T20:37:16.661Z,49.20
2022-08-16T20:39:46.508Z,49.40
2022-08-16T20:42:18.975Z,49.50
2022-08-16T20:44:49.876Z,49.60
2022-08-16T20:47:18.349Z,49.80
2022-08-16T20:49:46.735Z,50.00
2022-08-16T20:52:17.578Z,50.10
2022-08-16T20:54:47.305Z,50.20
2022-08-16T20:57:17.401Z,50.40
2022-08-16T20:59:50.004Z,50.60
2022-08-16T21:02:28.134Z,50.70
2022-08-16T21:04:56.619Z,50.80
2022-08-16T21:07:25.355Z,51.00
2022-08-16T21:09:54.229Z,51.10
2022-08-16T21:12:23.464Z,51.20
2022-08-16T21:14:55.742Z,51.30
2022-08-16T21:17:25.466Z,51.40
2022-08-16T21:19:54.356Z,51.70
2022-08-16T21:22:24.283Z,51.70
2022-08-16T21:24:53.966Z,51.90
2022-08-16T21:27:24.314Z,52.00
2022-08-16T21:29:54.711Z,52.10
2022-08-16T21:32:35.668Z,52.10
2022-08-16T21:35:12.150Z,52.30
2022-08-16T21:40:12.131Z,52.50
2022-08-16T21:42:42.958Z,52.80
2022-08-16T21:45:15.100Z,53.00
2022-08-16T21:47:45.149Z,53.00
2022-08-16T21:50:15.238Z,53.30
2022-08-16T21:52:44.073Z,53.40
2022-08-16T21:55:12.566Z,53.60
2022-08-16T21:57:40.951Z,53.80
2022-08-16T22:00:14.627Z,53.90
2022-08-16T22:02:49.147Z,54.10
2022-08-16T22:05:19.392Z,54.20
2022-08-16T22:07:47.720Z,54.30
2022-08-16T22:11:06.477Z,54.50
2022-08-16T22:13:05.628Z,54.60
2022-08-16T22:15:34.215Z,54.70
2022-08-16T22:18:04.077Z,54.80
2022-08-16T22:20:32.746Z,55.00
2022-08-16T22:23:12.069Z,55.20
2022-08-16T22:25:44.174Z,55.40
2022-08-16T22:28:13.009Z,55.50
2022-08-16T22:30:42.067Z,55.70
2022-08-16T22:33:14.974Z,55.90
2022-08-16T22:35:46.862Z,56.00
2022-08-16T22:38:55.278Z,56.00
2022-08-16T22:41:05.989Z,56.20
2022-08-16T22:46:03.106Z,56.50
2022-08-16T22:48:39.443Z,56.60
2022-08-16T22:51:11.045Z,56.80
2022-08-16T22:53:39.431Z,56.90
2022-08-16T22:56:08.294Z,57.00
2022-08-16T22:58:37.362Z,57.20
2022-08-16T23:01:07.371Z,57.30
2022-08-16T23:03:38.276Z,57.40
2022-08-16T23:06:08.052Z,57.50
2022-08-16T23:08:40.933Z,57.70
2022-08-16T23:11:12.079Z,57.80
2022-08-16T23:13:50.718Z,58.00
2022-08-16T23:16:33.051Z,58.20
2022-08-16T23:19:06.155Z,58.30
2022-08-16T23:21:37.329Z,58.50
2022-08-16T23:24:06.800Z,58.60
2022-08-16T23:26:45.693Z,58.70
2022-08-16T23:29:23.643Z,59.00
2022-08-16T23:31:58.094Z,59.10
2022-08-16T23:34:29.542Z,59.40
2022-08-16T23:36:58.352Z,59.40
2022-08-16T23:39:26.999Z,59.60
2022-08-16T23:41:55.639Z,59.70
2022-08-16T23:44:56.410Z,59.70
2022-08-16T23:47:12.573Z,59.80
2022-08-16T23:50:01.597Z,60.00
2022-08-16T23:55:19.561Z,60.30
